sensor_id;sensor_type;location;lat;lon;timestamp;P1;durP1;ratioP1;P2;durP2;ratioP2
12005;SDS011;6062;47.294;12.182;2022-10-22T00:00:11;1.25;;;0.70;;
12005;SDS011;6062;47.294;12.182;2022-10-22T00:02:40;0.60;;;0.60;;
12005;SDS011;6062;47.294;12.182;2022-10-22T00:05:07;0.60;;;0.60;;
12005;SDS011;6062;47.294;12.182;2022-10-22T00:07:34;1.30;;;0.95;;
12005;SDS011;6062;47.294;12.182;2022-10-22T00:10:00;0.88;;;0.70;;
12005;SDS011;6062;47.294;12.182;2022-10-22T00:12:28;1.10;;;0.70;;
12005;SDS011;6062;47.294;12.182;2022-10-22T00:14:54;0.80;;;0.80;;
12005;SDS011;6062;47.294;12.182;2022-10-22T00:17:19;0.68;;;0.60;;
12005;SDS011;6062;47.294;12.182;2022-10-22T00:19:45;1.30;;;0.80;;
12005;SDS011;6062;47.294;12.182;2022-10-22T00:22:11;1.08;;;0.60;;
12005;SDS011;6062;47.294;12.182;2022-10-22T00:24:37;0.75;;;0.70;;
12005;SDS011;6062;47.294;12.182;2022-10-22T00:27:04;0.60;;;0.60;;
12005;SDS011;6062;47.294;12.182;2022-10-22T00:29:32;0.60;;;0.60;;
12005;SDS011;6062;47.294;12.182;2022-10-22T00:31:57;1.10;;;0.65;;
12005;SDS011;6062;47.294;12.182;2022-10-22T00:34:23;1.27;;;0.60;;
12005;SDS011;6062;47.294;12.182;2022-10-22T00:36:49;0.73;;;0.50;;
12005;SDS011;6062;47.294;12.182;2022-10-22T00:39:17;1.02;;;0.70;;
12005;SDS011;6062;47.294;12.182;2022-10-22T00:41:46;0.60;;;0.60;;
12005;SDS011;6062;47.294;12.182;2022-10-22T00:47:24;1.98;;;0.68;;
12005;SDS011;6062;47.294;12.182;2022-10-22T00:49:52;1.00;;;0.70;;
12005;SDS011;6062;47.294;12.182;2022-10-22T00:52:21;0.95;;;0.80;;
12005;SDS011;6062;47.294;12.182;2022-10-22T00:54:47;0.85;;;0.70;;
12005;SDS011;6062;47.294;12.182;2022-10-22T00:57:14;0.70;;;0.70;;
12005;SDS011;6062;47.294;12.182;2022-10-22T00:59:43;0.65;;;0.60;;
12005;SDS011;6062;47.294;12.182;2022-10-22T01:02:10;1.00;;;0.73;;
12005;SDS011;6062;47.294;12.182;2022-10-22T01:04:36;1.05;;;0.50;;
12005;SDS011;6062;47.294;12.182;2022-10-22T01:07:01;1.15;;;0.57;;
12005;SDS011;6062;47.294;12.182;2022-10-22T01:09:29;0.50;;;0.50;;
12005;SDS011;6062;47.294;12.182;2022-10-22T01:18:23;1.77;;;0.60;;
12005;SDS011;6062;47.294;12.182;2022-10-22T01:21:08;0.80;;;0.60;;
12005;SDS011;6062;47.294;12.182;2022-10-22T01:29:51;0.60;;;0.50;;
12005;SDS011;6062;47.294;12.182;2022-10-22T01:32:25;1.00;;;0.60;;
12005;SDS011;6062;47.294;12.182;2022-10-22T01:35:05;1.35;;;0.70;;
12005;SDS011;6062;47.294;12.182;2022-10-22T01:37:37;0.63;;;0.60;;
12005;SDS011;6062;47.294;12.182;2022-10-22T01:40:18;2.00;;;0.70;;
12005;SDS011;6062;47.294;12.182;2022-10-22T01:43:19;1.48;;;0.70;;
12005;SDS011;6062;47.294;12.182;2022-10-22T01:45:49;1.33;;;0.50;;
12005;SDS011;6062;47.294;12.182;2022-10-22T01:59:31;0.43;;;0.43;;
12005;SDS011;6062;47.294;12.182;2022-10-22T02:05:09;0.88;;;0.60;;
12005;SDS011;6062;47.294;12.182;2022-10-22T02:07:42;0.85;;;0.68;;
12005;SDS011;6062;47.294;12.182;2022-10-22T02:10:16;0.55;;;0.55;;
12005;SDS011;6062;47.294;12.182;2022-10-22T02:12:43;0.55;;;0.55;;
12005;SDS011;6062;47.294;12.182;2022-10-22T02:15:16;0.60;;;0.60;;
12005;SDS011;6062;47.294;12.182;2022-10-22T02:17:44;0.45;;;0.45;;
12005;SDS011;6062;47.294;12.182;2022-10-22T02:20:13;0.85;;;0.50;;
12005;SDS011;6062;47.294;12.182;2022-10-22T02:22:44;0.50;;;0.50;;
12005;SDS011;6062;47.294;12.182;2022-10-22T02:25:12;0.60;;;0.60;;
12005;SDS011;6062;47.294;12.182;2022-10-22T02:27:46;0.55;;;0.50;;
12005;SDS011;6062;47.294;12.182;2022-10-22T02:30:19;0.60;;;0.60;;
12005;SDS011;6062;47.294;12.182;2022-10-22T02:35:21;0.57;;;0.57;;
12005;SDS011;6062;47.294;12.182;2022-10-22T02:37:51;0.38;;;0.38;;
12005;SDS011;6062;47.294;12.182;2022-10-22T02:40:20;2.33;;;1.00;;
12005;SDS011;6062;47.294;12.182;2022-10-22T02:42:48;1.25;;;0.80;;
12005;SDS011;6062;47.294;12.182;2022-10-22T02:45:16;0.82;;;0.80;;
12005;SDS011;6062;47.294;12.182;2022-10-22T02:47:43;1.45;;;1.23;;
12005;SDS011;6062;47.294;12.182;2022-10-22T02:50:09;2.17;;;1.30;;
12005;SDS011;6062;47.294;12.182;2022-10-22T02:52:35;2.47;;;1.30;;
12005;SDS011;6062;47.294;12.182;2022-10-22T02:55:01;4.03;;;1.40;;
12005;SDS011;6062;47.294;12.182;2022-10-22T02:57:28;2.83;;;1.50;;
12005;SDS011;6062;47.294;12.182;2022-10-22T02:59:54;3.22;;;1.65;;
12005;SDS011;6062;47.294;12.182;2022-10-22T03:02:19;2.75;;;1.35;;
12005;SDS011;6062;47.294;12.182;2022-10-22T03:04:45;4.68;;;1.63;;
12005;SDS011;6062;47.294;12.182;2022-10-22T03:07:10;3.92;;;1.60;;
12005;SDS011;6062;47.294;12.182;2022-10-22T03:09:36;2.45;;;1.75;;
12005;SDS011;6062;47.294;12.182;2022-10-22T03:12:02;3.88;;;1.52;;
12005;SDS011;6062;47.294;12.182;2022-10-22T03:14:28;3.33;;;1.52;;
12005;SDS011;6062;47.294;12.182;2022-10-22T03:16:53;9.98;;;1.67;;
12005;SDS011;6062;47.294;12.182;2022-10-22T03:19:19;16.15;;;1.75;;
12005;SDS011;6062;47.294;12.182;2022-10-22T03:21:50;66.18;;;3.20;;
12005;SDS011;6062;47.294;12.182;2022-10-22T03:24:43;7.38;;;1.00;;
12005;SDS011;6062;47.294;12.182;2022-10-22T03:27:14;0.98;;;0.73;;
12005;SDS011;6062;47.294;12.182;2022-10-22T03:29:44;1.13;;;0.60;;
12005;SDS011;6062;47.294;12.182;2022-10-22T03:32:11;0.60;;;0.60;;
12005;SDS011;6062;47.294;12.182;2022-10-22T03:34:37;0.70;;;0.50;;
12005;SDS011;6062;47.294;12.182;2022-10-22T03:37:03;0.70;;;0.60;;
12005;SDS011;6062;47.294;12.182;2022-10-22T03:39:29;1.85;;;0.80;;
12005;SDS011;6062;47.294;12.182;2022-10-22T03:41:58;89.47;;;3.50;;
12005;SDS011;6062;47.294;12.182;2022-10-22T03:44:25;119.55;;;3.97;;
12005;SDS011;6062;47.294;12.182;2022-10-22T03:46:51;173.88;;;5.55;;
12005;SDS011;6062;47.294;12.182;2022-10-22T03:49:17;298.40;;;10.30;;
12005;SDS011;6062;47.294;12.182;2022-10-22T03:51:43;345.08;;;10.68;;
12005;SDS011;6062;47.294;12.182;2022-10-22T03:54:09;180.40;;;5.50;;
12005;SDS011;6062;47.294;12.182;2022-10-22T03:56:34;99.03;;;3.38;;
12005;SDS011;6062;47.294;12.182;2022-10-22T03:59:00;0.40;;;0.40;;
12005;SDS011;6062;47.294;12.182;2022-10-22T04:01:27;0.50;;;0.50;;
12005;SDS011;6062;47.294;12.182;2022-10-22T04:03:55;0.40;;;0.40;;
12005;SDS011;6062;47.294;12.182;2022-10-22T04:06:21;0.40;;;0.40;;
12005;SDS011;6062;47.294;12.182;2022-10-22T04:08:48;0.45;;;0.45;;
12005;SDS011;6062;47.294;12.182;2022-10-22T04:11:14;0.40;;;0.40;;
12005;SDS011;6062;47.294;12.182;2022-10-22T04:13:41;0.35;;;0.32;;
12005;SDS011;6062;47.294;12.182;2022-10-22T04:16:12;0.30;;;0.30;;
12005;SDS011;6062;47.294;12.182;2022-10-22T04:18:43;0.40;;;0.40;;
12005;SDS011;6062;47.294;12.182;2022-10-22T04:21:12;0.30;;;0.30;;
12005;SDS011;6062;47.294;12.182;2022-10-22T04:23:47;0.30;;;0.30;;
12005;SDS011;6062;47.294;12.182;2022-10-22T04:26:16;1.75;;;0.40;;
12005;SDS011;6062;47.294;12.182;2022-10-22T04:28:44;0.30;;;0.30;;
12005;SDS011;6062;47.294;12.182;2022-10-22T04:31:16;0.30;;;0.30;;
12005;SDS011;6062;47.294;12.182;2022-10-22T04:33:44;0.38;;;0.38;;
12005;SDS011;6062;47.294;12.182;2022-10-22T04:36:12;0.40;;;0.40;;
12005;SDS011;6062;47.294;12.182;2022-10-22T04:38:43;0.32;;;0.32;;
12005;SDS011;6062;47.294;12.182;2022-10-22T04:41:15;0.28;;;0.28;;
12005;SDS011;6062;47.294;12.182;2022-10-22T04:43:44;0.35;;;0.35;;
12005;SDS011;6062;47.294;12.182;2022-10-22T04:46:11;0.40;;;0.40;;
12005;SDS011;6062;47.294;12.182;2022-10-22T04:48:39;0.30;;;0.30;;
12005;SDS011;6062;47.294;12.182;2022-10-22T04:51:06;0.32;;;0.32;;
12005;SDS011;6062;47.294;12.182;2022-10-22T04:53:34;0.32;;;0.30;;
12005;SDS011;6062;47.294;12.182;2022-10-22T04:56:07;0.30;;;0.30;;
12005;SDS011;6062;47.294;12.182;2022-10-22T04:58:45;0.30;;;0.30;;
12005;SDS011;6062;47.294;12.182;2022-10-22T05:01:15;0.30;;;0.30;;
12005;SDS011;6062;47.294;12.182;2022-10-22T05:03:45;0.55;;;0.40;;
12005;SDS011;6062;47.294;12.182;2022-10-22T05:06:13;0.30;;;0.30;;
12005;SDS011;6062;47.294;12.182;2022-10-22T05:08:40;0.55;;;0.30;;
12005;SDS011;6062;47.294;12.182;2022-10-22T05:11:14;0.30;;;0.30;;
12005;SDS011;6062;47.294;12.182;2022-10-22T05:13:49;0.30;;;0.30;;
12005;SDS011;6062;47.294;12.182;2022-10-22T05:16:15;0.30;;;0.30;;
12005;SDS011;6062;47.294;12.182;2022-10-22T05:18:42;0.30;;;0.30;;
12005;SDS011;6062;47.294;12.182;2022-10-22T05:21:09;0.20;;;0.20;;
12005;SDS011;6062;47.294;12.182;2022-10-22T05:23:38;1.08;;;0.30;;
12005;SDS011;6062;47.294;12.182;2022-10-22T05:26:05;0.30;;;0.30;;
12005;SDS011;6062;47.294;12.182;2022-10-22T05:28:33;1.45;;;0.30;;
12005;SDS011;6062;47.294;12.182;2022-10-22T05:31:00;0.25;;;0.25;;
12005;SDS011;6062;47.294;12.182;2022-10-22T05:33:29;0.30;;;0.30;;
12005;SDS011;6062;47.294;12.182;2022-10-22T05:35:56;0.30;;;0.30;;
12005;SDS011;6062;47.294;12.182;2022-10-22T05:38:22;0.30;;;0.30;;
12005;SDS011;6062;47.294;12.182;2022-10-22T05:40:58;0.30;;;0.30;;
12005;SDS011;6062;47.294;12.182;2022-10-22T05:43:32;0.30;;;0.30;;
12005;SDS011;6062;47.294;12.182;2022-10-22T05:46:03;0.30;;;0.30;;
12005;SDS011;6062;47.294;12.182;2022-10-22T05:48:31;0.30;;;0.30;;
12005;SDS011;6062;47.294;12.182;2022-10-22T05:51:02;0.32;;;0.30;;
12005;SDS011;6062;47.294;12.182;2022-10-22T05:53:34;0.32;;;0.32;;
12005;SDS011;6062;47.294;12.182;2022-10-22T05:56:04;0.30;;;0.30;;
12005;SDS011;6062;47.294;12.182;2022-10-22T05:58:35;0.30;;;0.30;;
12005;SDS011;6062;47.294;12.182;2022-10-22T06:01:02;0.30;;;0.30;;
12005;SDS011;6062;47.294;12.182;2022-10-22T06:03:35;0.20;;;0.20;;
12005;SDS011;6062;47.294;12.182;2022-10-22T06:06:02;0.30;;;0.30;;
12005;SDS011;6062;47.294;12.182;2022-10-22T06:08:37;0.30;;;0.30;;
12005;SDS011;6062;47.294;12.182;2022-10-22T06:11:03;0.40;;;0.40;;
12005;SDS011;6062;47.294;12.182;2022-10-22T06:13:29;2.72;;;0.60;;
12005;SDS011;6062;47.294;12.182;2022-10-22T06:15:56;0.30;;;0.30;;
12005;SDS011;6062;47.294;12.182;2022-10-22T06:18:22;0.38;;;0.35;;
12005;SDS011;6062;47.294;12.182;2022-10-22T06:20:48;1.85;;;0.40;;
12005;SDS011;6062;47.294;12.182;2022-10-22T06:23:14;1.90;;;0.38;;
12005;SDS011;6062;47.294;12.182;2022-10-22T06:25:40;2.20;;;0.50;;
12005;SDS011;6062;47.294;12.182;2022-10-22T06:28:07;1.33;;;0.40;;
12005;SDS011;6062;47.294;12.182;2022-10-22T06:30:33;0.50;;;0.50;;
12005;SDS011;6062;47.294;12.182;2022-10-22T06:33:01;0.60;;;0.60;;
12005;SDS011;6062;47.294;12.182;2022-10-22T06:35:27;0.95;;;0.60;;
12005;SDS011;6062;47.294;12.182;2022-10-22T06:37:52;0.43;;;0.30;;
12005;SDS011;6062;47.294;12.182;2022-10-22T06:40:18;0.47;;;0.40;;
12005;SDS011;6062;47.294;12.182;2022-10-22T07:40:21;0.47;;;0.40;;
12005;SDS011;6062;47.294;12.182;2022-10-22T07:42:47;0.40;;;0.40;;
12005;SDS011;6062;47.294;12.182;2022-10-22T07:45:13;0.65;;;0.40;;
12005;SDS011;6062;47.294;12.182;2022-10-22T07:47:38;0.30;;;0.30;;
12005;SDS011;6062;47.294;12.182;2022-10-22T07:50:04;0.43;;;0.38;;
12005;SDS011;6062;47.294;12.182;2022-10-22T07:52:31;0.32;;;0.30;;
12005;SDS011;6062;47.294;12.182;2022-10-22T07:54:57;0.40;;;0.40;;
12005;SDS011;6062;47.294;12.182;2022-10-22T07:57:23;0.40;;;0.40;;
12005;SDS011;6062;47.294;12.182;2022-10-22T07:59:49;0.30;;;0.30;;
12005;SDS011;6062;47.294;12.182;2022-10-22T08:02:15;0.30;;;0.30;;
12005;SDS011;6062;47.294;12.182;2022-10-22T08:04:40;0.30;;;0.30;;
12005;SDS011;6062;47.294;12.182;2022-10-22T08:07:06;0.32;;;0.32;;
12005;SDS011;6062;47.294;12.182;2022-10-22T08:09:32;0.30;;;0.30;;
12005;SDS011;6062;47.294;12.182;2022-10-22T08:11:58;0.30;;;0.30;;
12005;SDS011;6062;47.294;12.182;2022-10-22T08:14:24;0.30;;;0.30;;
12005;SDS011;6062;47.294;12.182;2022-10-22T08:16:49;0.30;;;0.30;;
12005;SDS011;6062;47.294;12.182;2022-10-22T08:19:15;0.30;;;0.30;;
12005;SDS011;6062;47.294;12.182;2022-10-22T08:21:43;0.57;;;0.30;;
12005;SDS011;6062;47.294;12.182;2022-10-22T08:24:10;0.30;;;0.30;;
12005;SDS011;6062;47.294;12.182;2022-10-22T08:26:35;0.30;;;0.30;;
12005;SDS011;6062;47.294;12.182;2022-10-22T08:29:01;0.30;;;0.30;;
12005;SDS011;6062;47.294;12.182;2022-10-22T08:31:28;0.32;;;0.30;;
12005;SDS011;6062;47.294;12.182;2022-10-22T08:33:53;0.30;;;0.30;;
12005;SDS011;6062;47.294;12.182;2022-10-22T08:36:19;0.30;;;0.30;;
12005;SDS011;6062;47.294;12.182;2022-10-22T08:38:45;0.30;;;0.30;;
12005;SDS011;6062;47.294;12.182;2022-10-22T08:41:12;0.30;;;0.30;;
12005;SDS011;6062;47.294;12.182;2022-10-22T08:43:59;0.20;;;0.20;;
12005;SDS011;6062;47.294;12.182;2022-10-22T08:49:59;0.30;;;0.30;;
12005;SDS011;6062;47.294;12.182;2022-10-22T08:52:25;0.30;;;0.30;;
12005;SDS011;6062;47.294;12.182;2022-10-22T08:54:57;0.30;;;0.30;;
12005;SDS011;6062;47.294;12.182;2022-10-22T09:00:20;0.30;;;0.30;;
12005;SDS011;6062;47.294;12.182;2022-10-22T09:06:24;0.30;;;0.30;;
12005;SDS011;6062;47.294;12.182;2022-10-22T09:08:52;0.30;;;0.30;;
12005;SDS011;6062;47.294;12.182;2022-10-22T09:13:52;0.30;;;0.30;;
12005;SDS011;6062;47.294;12.182;2022-10-22T09:16:33;0.30;;;0.30;;
12005;SDS011;6062;47.294;12.182;2022-10-22T09:25:17;0.30;;;0.30;;
12005;SDS011;6062;47.294;12.182;2022-10-22T09:27:56;0.30;;;0.30;;
12005;SDS011;6062;47.294;12.182;2022-10-22T09:30:30;0.30;;;0.30;;
12005;SDS011;6062;47.294;12.182;2022-10-22T09:33:05;0.30;;;0.30;;
12005;SDS011;6062;47.294;12.182;2022-10-22T09:35:34;0.30;;;0.30;;
12005;SDS011;6062;47.294;12.182;2022-10-22T09:38:10;0.30;;;0.30;;
12005;SDS011;6062;47.294;12.182;2022-10-22T09:40:44;0.30;;;0.30;;
12005;SDS011;6062;47.294;12.182;2022-10-22T09:43:15;0.30;;;0.30;;
12005;SDS011;6062;47.294;12.182;2022-10-22T09:45:42;0.30;;;0.30;;
12005;SDS011;6062;47.294;12.182;2022-10-22T09:53:41;1.00;;;0.40;;
12005;SDS011;6062;47.294;12.182;2022-10-22T09:56:45;0.45;;;0.32;;
12005;SDS011;6062;47.294;12.182;2022-10-22T09:59:11;0.30;;;0.30;;
12005;SDS011;6062;47.294;12.182;2022-10-22T10:01:40;0.30;;;0.30;;
12005;SDS011;6062;47.294;12.182;2022-10-22T10:04:07;0.30;;;0.30;;
12005;SDS011;6062;47.294;12.182;2022-10-22T10:06:39;0.30;;;0.30;;
12005;SDS011;6062;47.294;12.182;2022-10-22T10:14:39;0.30;;;0.30;;
12005;SDS011;6062;47.294;12.182;2022-10-22T10:23:06;0.30;;;0.30;;
12005;SDS011;6062;47.294;12.182;2022-10-22T10:26:16;0.40;;;0.35;;
12005;SDS011;6062;47.294;12.182;2022-10-22T10:29:11;1.23;;;0.40;;
12005;SDS011;6062;47.294;12.182;2022-10-22T10:32:11;0.30;;;0.30;;
12005;SDS011;6062;47.294;12.182;2022-10-22T10:37:29;0.30;;;0.30;;
12005;SDS011;6062;47.294;12.182;2022-10-22T10:42:51;0.28;;;0.28;;
12005;SDS011;6062;47.294;12.182;2022-10-22T10:54:13;0.30;;;0.30;;
12005;SDS011;6062;47.294;12.182;2022-10-22T10:59:29;0.20;;;0.20;;
12005;SDS011;6062;47.294;12.182;2022-10-22T11:08:13;0.30;;;0.30;;
12005;SDS011;6062;47.294;12.182;2022-10-22T11:16:22;0.20;;;0.20;;
12005;SDS011;6062;47.294;12.182;2022-10-22T11:21:37;0.20;;;0.20;;
12005;SDS011;6062;47.294;12.182;2022-10-22T11:27:32;0.28;;;0.28;;
12005;SDS011;6062;47.294;12.182;2022-10-22T11:30:26;0.30;;;0.30;;
12005;SDS011;6062;47.294;12.182;2022-10-22T11:32:56;0.30;;;0.30;;
12005;SDS011;6062;47.294;12.182;2022-10-22T11:35:29;0.30;;;0.30;;
12005;SDS011;6062;47.294;12.182;2022-10-22T11:38:04;0.20;;;0.20;;
12005;SDS011;6062;47.294;12.182;2022-10-22T11:40:35;0.20;;;0.20;;
12005;SDS011;6062;47.294;12.182;2022-10-22T11:43:07;0.20;;;0.20;;
12005;SDS011;6062;47.294;12.182;2022-10-22T11:45:40;0.30;;;0.30;;
12005;SDS011;6062;47.294;12.182;2022-10-22T11:50:45;0.30;;;0.30;;
12005;SDS011;6062;47.294;12.182;2022-10-22T11:53:25;0.20;;;0.20;;
12005;SDS011;6062;47.294;12.182;2022-10-22T11:58:46;0.20;;;0.20;;
12005;SDS011;6062;47.294;12.182;2022-10-22T12:03:52;0.30;;;0.30;;
12005;SDS011;6062;47.294;12.182;2022-10-22T12:10:16;0.20;;;0.20;;
12005;SDS011;6062;47.294;12.182;2022-10-22T12:12:48;0.22;;;0.22;;
12005;SDS011;6062;47.294;12.182;2022-10-22T12:15:25;0.30;;;0.30;;
12005;SDS011;6062;47.294;12.182;2022-10-22T12:17:57;0.20;;;0.20;;
12005;SDS011;6062;47.294;12.182;2022-10-22T12:20:26;0.20;;;0.20;;
12005;SDS011;6062;47.294;12.182;2022-10-22T12:22:53;0.30;;;0.30;;
12005;SDS011;6062;47.294;12.182;2022-10-22T12:25:23;0.30;;;0.30;;
12005;SDS011;6062;47.294;12.182;2022-10-22T12:27:55;0.40;;;0.30;;
12005;SDS011;6062;47.294;12.182;2022-10-22T12:30:28;0.57;;;0.40;;
12005;SDS011;6062;47.294;12.182;2022-10-22T12:32:59;0.30;;;0.30;;
12005;SDS011;6062;47.294;12.182;2022-10-22T12:35:29;0.30;;;0.30;;
12005;SDS011;6062;47.294;12.182;2022-10-22T12:38:24;0.30;;;0.30;;
12005;SDS011;6062;47.294;12.182;2022-10-22T12:40:50;0.32;;;0.30;;
12005;SDS011;6062;47.294;12.182;2022-10-22T12:43:29;0.20;;;0.20;;
12005;SDS011;6062;47.294;12.182;2022-10-22T12:45:56;0.20;;;0.20;;
12005;SDS011;6062;47.294;12.182;2022-10-22T12:48:25;0.20;;;0.20;;
12005;SDS011;6062;47.294;12.182;2022-10-22T12:51:01;0.20;;;0.20;;
12005;SDS011;6062;47.294;12.182;2022-10-22T12:53:33;0.30;;;0.30;;
12005;SDS011;6062;47.294;12.182;2022-10-22T12:56:24;0.20;;;0.20;;
12005;SDS011;6062;47.294;12.182;2022-10-22T12:58:59;0.20;;;0.20;;
12005;SDS011;6062;47.294;12.182;2022-10-22T13:01:37;0.30;;;0.30;;
12005;SDS011;6062;47.294;12.182;2022-10-22T13:06:44;0.55;;;0.30;;
12005;SDS011;6062;47.294;12.182;2022-10-22T13:09:19;0.30;;;0.30;;
12005;SDS011;6062;47.294;12.182;2022-10-22T13:11:52;0.25;;;0.25;;
12005;SDS011;6062;47.294;12.182;2022-10-22T13:17:12;0.30;;;0.30;;
12005;SDS011;6062;47.294;12.182;2022-10-22T13:20:12;0.30;;;0.30;;
12005;SDS011;6062;47.294;12.182;2022-10-22T13:22:57;0.30;;;0.30;;
12005;SDS011;6062;47.294;12.182;2022-10-22T13:25:29;0.65;;;0.30;;
12005;SDS011;6062;47.294;12.182;2022-10-22T13:30:32;0.30;;;0.30;;
12005;SDS011;6062;47.294;12.182;2022-10-22T13:35:46;0.40;;;0.40;;
12005;SDS011;6062;47.294;12.182;2022-10-22T13:38:23;0.30;;;0.30;;
12005;SDS011;6062;47.294;12.182;2022-10-22T13:40:50;0.30;;;0.30;;
12005;SDS011;6062;47.294;12.182;2022-10-22T13:43:16;0.30;;;0.30;;
12005;SDS011;6062;47.294;12.182;2022-10-22T13:45:42;0.20;;;0.20;;
12005;SDS011;6062;47.294;12.182;2022-10-22T13:48:14;0.30;;;0.30;;
12005;SDS011;6062;47.294;12.182;2022-10-22T13:50:43;0.57;;;0.30;;
12005;SDS011;6062;47.294;12.182;2022-10-22T13:53:12;1.05;;;0.20;;
12005;SDS011;6062;47.294;12.182;2022-10-22T13:55:49;0.30;;;0.30;;
12005;SDS011;6062;47.294;12.182;2022-10-22T13:58:16;0.30;;;0.30;;
12005;SDS011;6062;47.294;12.182;2022-10-22T14:00:46;0.30;;;0.30;;
12005;SDS011;6062;47.294;12.182;2022-10-22T14:03:22;0.25;;;0.25;;
12005;SDS011;6062;47.294;12.182;2022-10-22T14:05:56;0.20;;;0.20;;
12005;SDS011;6062;47.294;12.182;2022-10-22T14:08:22;0.20;;;0.20;;
12005;SDS011;6062;47.294;12.182;2022-10-22T14:10:50;0.20;;;0.20;;
12005;SDS011;6062;47.294;12.182;2022-10-22T14:13:16;0.47;;;0.35;;
12005;SDS011;6062;47.294;12.182;2022-10-22T14:15:44;0.20;;;0.20;;
12005;SDS011;6062;47.294;12.182;2022-10-22T14:18:17;0.43;;;0.38;;
12005;SDS011;6062;47.294;12.182;2022-10-22T14:20:56;0.20;;;0.20;;
12005;SDS011;6062;47.294;12.182;2022-10-22T14:23:28;0.30;;;0.30;;
12005;SDS011;6062;47.294;12.182;2022-10-22T14:25:56;0.20;;;0.20;;
12005;SDS011;6062;47.294;12.182;2022-10-22T14:28:23;0.30;;;0.30;;
12005;SDS011;6062;47.294;12.182;2022-10-22T14:30:49;0.20;;;0.20;;
12005;SDS011;6062;47.294;12.182;2022-10-22T14:33:17;1.70;;;0.40;;
12005;SDS011;6062;47.294;12.182;2022-10-22T14:35:54;0.20;;;0.20;;
12005;SDS011;6062;47.294;12.182;2022-10-22T14:38:21;0.20;;;0.20;;
12005;SDS011;6062;47.294;12.182;2022-10-22T14:40:47;0.20;;;0.20;;
12005;SDS011;6062;47.294;12.182;2022-10-22T14:43:24;0.20;;;0.20;;
12005;SDS011;6062;47.294;12.182;2022-10-22T14:45:54;0.20;;;0.20;;
12005;SDS011;6062;47.294;12.182;2022-10-22T14:48:21;3.38;;;0.45;;
12005;SDS011;6062;47.294;12.182;2022-10-22T14:50:47;0.57;;;0.40;;
12005;SDS011;6062;47.294;12.182;2022-10-22T14:53:13;0.20;;;0.20;;
12005;SDS011;6062;47.294;12.182;2022-10-22T14:55:42;0.30;;;0.30;;
12005;SDS011;6062;47.294;12.182;2022-10-22T14:58:11;0.30;;;0.30;;
12005;SDS011;6062;47.294;12.182;2022-10-22T15:00:36;0.43;;;0.40;;
12005;SDS011;6062;47.294;12.182;2022-10-22T15:03:05;0.43;;;0.30;;
12005;SDS011;6062;47.294;12.182;2022-10-22T15:05:30;0.20;;;0.20;;
12005;SDS011;6062;47.294;12.182;2022-10-22T15:07:56;0.25;;;0.25;;
12005;SDS011;6062;47.294;12.182;2022-10-22T15:10:23;0.20;;;0.20;;
12005;SDS011;6062;47.294;12.182;2022-10-22T15:12:50;0.30;;;0.30;;
12005;SDS011;6062;47.294;12.182;2022-10-22T15:15:15;0.65;;;0.40;;
12005;SDS011;6062;47.294;12.182;2022-10-22T15:17:41;0.30;;;0.30;;
12005;SDS011;6062;47.294;12.182;2022-10-22T15:20:07;0.30;;;0.30;;
12005;SDS011;6062;47.294;12.182;2022-10-22T15:22:33;1.60;;;0.35;;
12005;SDS011;6062;47.294;12.182;2022-10-22T15:25:00;0.35;;;0.35;;
12005;SDS011;6062;47.294;12.182;2022-10-22T15:27:31;0.30;;;0.30;;
12005;SDS011;6062;47.294;12.182;2022-10-22T15:29:57;0.65;;;0.40;;
12005;SDS011;6062;47.294;12.182;2022-10-22T15:32:26;0.32;;;0.32;;
12005;SDS011;6062;47.294;12.182;2022-10-22T15:34:53;0.20;;;0.20;;
12005;SDS011;6062;47.294;12.182;2022-10-22T15:37:20;0.20;;;0.20;;
12005;SDS011;6062;47.294;12.182;2022-10-22T15:39:46;0.30;;;0.30;;
12005;SDS011;6062;47.294;12.182;2022-10-22T15:42:12;0.40;;;0.40;;
12005;SDS011;6062;47.294;12.182;2022-10-22T15:44:42;0.20;;;0.20;;
12005;SDS011;6062;47.294;12.182;2022-10-22T15:47:08;0.30;;;0.30;;
12005;SDS011;6062;47.294;12.182;2022-10-22T15:49:35;0.40;;;0.40;;
12005;SDS011;6062;47.294;12.182;2022-10-22T15:52:04;0.30;;;0.30;;
12005;SDS011;6062;47.294;12.182;2022-10-22T15:54:30;0.30;;;0.30;;
12005;SDS011;6062;47.294;12.182;2022-10-22T15:56:57;0.38;;;0.38;;
12005;SDS011;6062;47.294;12.182;2022-10-22T15:59:26;0.30;;;0.30;;
12005;SDS011;6062;47.294;12.182;2022-10-22T16:01:51;1.17;;;0.30;;
12005;SDS011;6062;47.294;12.182;2022-10-22T16:04:17;0.38;;;0.38;;
12005;SDS011;6062;47.294;12.182;2022-10-22T16:06:44;0.30;;;0.30;;
12005;SDS011;6062;47.294;12.182;2022-10-22T16:09:13;0.30;;;0.30;;
12005;SDS011;6062;47.294;12.182;2022-10-22T16:11:43;0.38;;;0.38;;
12005;SDS011;6062;47.294;12.182;2022-10-22T16:14:10;0.90;;;0.40;;
12005;SDS011;6062;47.294;12.182;2022-10-22T16:16:41;0.30;;;0.30;;
12005;SDS011;6062;47.294;12.182;2022-10-22T16:19:11;0.30;;;0.30;;
12005;SDS011;6062;47.294;12.182;2022-10-22T16:21:40;0.90;;;0.32;;
12005;SDS011;6062;47.294;12.182;2022-10-22T16:24:06;0.40;;;0.40;;
12005;SDS011;6062;47.294;12.182;2022-10-22T16:26:33;0.40;;;0.40;;
12005;SDS011;6062;47.294;12.182;2022-10-22T16:28:59;0.40;;;0.40;;
12005;SDS011;6062;47.294;12.182;2022-10-22T16:31:26;0.47;;;0.47;;
12005;SDS011;6062;47.294;12.182;2022-10-22T16:33:52;0.38;;;0.30;;
12005;SDS011;6062;47.294;12.182;2022-10-22T16:36:18;0.63;;;0.40;;
12005;SDS011;6062;47.294;12.182;2022-10-22T16:38:46;0.63;;;0.50;;
12005;SDS011;6062;47.294;12.182;2022-10-22T16:41:14;0.43;;;0.40;;
12005;SDS011;6062;47.294;12.182;2022-10-22T16:43:43;1.65;;;0.47;;
12005;SDS011;6062;47.294;12.182;2022-10-22T16:46:12;0.40;;;0.40;;
12005;SDS011;6062;47.294;12.182;2022-10-22T16:48:47;0.70;;;0.38;;
12005;SDS011;6062;47.294;12.182;2022-10-22T16:51:16;0.40;;;0.40;;
12005;SDS011;6062;47.294;12.182;2022-10-22T16:53:50;1.10;;;0.40;;
12005;SDS011;6062;47.294;12.182;2022-10-22T16:56:17;0.40;;;0.40;;
12005;SDS011;6062;47.294;12.182;2022-10-22T16:58:47;0.40;;;0.40;;
12005;SDS011;6062;47.294;12.182;2022-10-22T17:01:17;0.38;;;0.32;;
12005;SDS011;6062;47.294;12.182;2022-10-22T17:03:45;0.38;;;0.38;;
12005;SDS011;6062;47.294;12.182;2022-10-22T17:06:11;0.40;;;0.40;;
12005;SDS011;6062;47.294;12.182;2022-10-22T17:08:38;0.35;;;0.35;;
12005;SDS011;6062;47.294;12.182;2022-10-22T17:11:13;0.40;;;0.40;;
12005;SDS011;6062;47.294;12.182;2022-10-22T17:13:44;0.30;;;0.30;;
12005;SDS011;6062;47.294;12.182;2022-10-22T17:16:13;0.30;;;0.30;;
12005;SDS011;6062;47.294;12.182;2022-10-22T17:18:41;0.30;;;0.30;;
12005;SDS011;6062;47.294;12.182;2022-10-22T17:21:10;0.50;;;0.50;;
12005;SDS011;6062;47.294;12.182;2022-10-22T17:23:37;0.52;;;0.40;;
12005;SDS011;6062;47.294;12.182;2022-10-22T17:26:04;0.32;;;0.32;;
12005;SDS011;6062;47.294;12.182;2022-10-22T17:28:33;0.40;;;0.40;;
12005;SDS011;6062;47.294;12.182;2022-10-22T17:31:07;0.30;;;0.30;;
12005;SDS011;6062;47.294;12.182;2022-10-22T17:33:41;1.63;;;0.50;;
12005;SDS011;6062;47.294;12.182;2022-10-22T17:36:07;0.30;;;0.30;;
12005;SDS011;6062;47.294;12.182;2022-10-22T17:38:35;0.50;;;0.50;;
12005;SDS011;6062;47.294;12.182;2022-10-22T17:41:02;0.50;;;0.50;;
12005;SDS011;6062;47.294;12.182;2022-10-22T17:43:28;1.52;;;0.38;;
12005;SDS011;6062;47.294;12.182;2022-10-22T17:46:04;1.35;;;0.40;;
12005;SDS011;6062;47.294;12.182;2022-10-22T17:48:32;0.32;;;0.32;;
12005;SDS011;6062;47.294;12.182;2022-10-22T17:50:58;0.85;;;0.40;;
12005;SDS011;6062;47.294;12.182;2022-10-22T17:53:24;0.65;;;0.50;;
12005;SDS011;6062;47.294;12.182;2022-10-22T17:55:57;0.70;;;0.50;;
12005;SDS011;6062;47.294;12.182;2022-10-22T17:58:25;0.57;;;0.40;;
12005;SDS011;6062;47.294;12.182;2022-10-22T18:00:50;0.45;;;0.40;;
12005;SDS011;6062;47.294;12.182;2022-10-22T18:03:16;0.30;;;0.30;;
12005;SDS011;6062;47.294;12.182;2022-10-22T18:05:43;0.40;;;0.40;;